Terminal Aerodrome Forecast
Issued by NWS

Home | Current Version | Previous Version | Text Only | Print | Product List | Glossary On
Versions: 1 2 3 4 5 6 7 8 9 10 11 12 13 14 15 16 17 18 19
000
FTAK31 PAFA 230531
TAFATA
TAF
PATA 230531Z 2306/2406 34003KT P6SM BKN120
     FM231200 VRB03KT 4SM -SN BR BKN025 BKN050
     FM231500 09008KT 2SM -SN BR BKN015 OVC050=

USA.gov is the U.S. government's official web portal to all federal, state and local government web resources and services.